sensor_id;sensor_type;location;lat;lon;timestamp;temperature;humidity
10143;DHT22;5112;54.088;13.446;2022-12-07T00:09:43;2.50;99.90
10143;DHT22;5112;54.088;13.446;2022-12-07T00:19:44;2.50;99.90
10143;DHT22;5112;54.088;13.446;2022-12-07T00:29:47;2.60;99.90
10143;DHT22;5112;54.088;13.446;2022-12-07T00:39:49;2.50;99.90
10143;DHT22;5112;54.088;13.446;2022-12-07T00:49:52;2.40;99.90
10143;DHT22;5112;54.088;13.446;2022-12-07T00:59:53;2.40;99.90
10143;DHT22;5112;54.088;13.446;2022-12-07T01:09:57;2.40;99.90
10143;DHT22;5112;54.088;13.446;2022-12-07T01:19:58;2.30;99.90
10143;DHT22;5112;54.088;13.446;2022-12-07T01:30:03;2.20;99.90
10143;DHT22;5112;54.088;13.446;2022-12-07T01:40:06;2.10;99.90
10143;DHT22;5112;54.088;13.446;2022-12-07T01:50:10;2.10;99.90
10143;DHT22;5112;54.088;13.446;2022-12-07T02:00:12;2.10;99.90
10143;DHT22;5112;54.088;13.446;2022-12-07T02:10:18;2.10;99.90
10143;DHT22;5112;54.088;13.446;2022-12-07T02:20:28;1.90;99.90
10143;DHT22;5112;54.088;13.446;2022-12-07T02:30:35;2.00;99.90
10143;DHT22;5112;54.088;13.446;2022-12-07T02:40:43;1.90;99.90
10143;DHT22;5112;54.088;13.446;2022-12-07T02:50:48;1.80;99.90
10143;DHT22;5112;54.088;13.446;2022-12-07T03:00:55;1.70;99.90
10143;DHT22;5112;54.088;13.446;2022-12-07T03:11:04;1.50;99.90
10143;DHT22;5112;54.088;13.446;2022-12-07T03:21:11;1.50;99.90
10143;DHT22;5112;54.088;13.446;2022-12-07T03:31:19;1.40;99.90
10143;DHT22;5112;54.088;13.446;2022-12-07T03:41:24;1.20;99.90
10143;DHT22;5112;54.088;13.446;2022-12-07T03:51:32;1.20;99.90
10143;DHT22;5112;54.088;13.446;2022-12-07T04:01:37;1.30;99.90
10143;DHT22;5112;54.088;13.446;2022-12-07T04:11:40;1.30;99.90
10143;DHT22;5112;54.088;13.446;2022-12-07T04:21:42;1.20;99.90
10143;DHT22;5112;54.088;13.446;2022-12-07T04:31:45;1.10;99.90
10143;DHT22;5112;54.088;13.446;2022-12-07T04:41:46;1.20;99.90
10143;DHT22;5112;54.088;13.446;2022-12-07T04:51:49;1.20;99.90
10143;DHT22;5112;54.088;13.446;2022-12-07T05:01:51;1.20;99.90
10143;DHT22;5112;54.088;13.446;2022-12-07T05:11:54;1.20;99.90
10143;DHT22;5112;54.088;13.446;2022-12-07T05:21:56;1.20;99.90
10143;DHT22;5112;54.088;13.446;2022-12-07T05:31:59;1.20;99.90
10143;DHT22;5112;54.088;13.446;2022-12-07T05:42:00;1.20;99.90
10143;DHT22;5112;54.088;13.446;2022-12-07T05:52:16;1.10;99.90
10143;DHT22;5112;54.088;13.446;2022-12-07T06:02:17;1.10;99.90
10143;DHT22;5112;54.088;13.446;2022-12-07T06:12:20;1.10;99.90
10143;DHT22;5112;54.088;13.446;2022-12-07T06:22:39;1.20;99.90
10143;DHT22;5112;54.088;13.446;2022-12-07T06:32:42;1.20;99.90
10143;DHT22;5112;54.088;13.446;2022-12-07T06:42:44;1.20;99.90
10143;DHT22;5112;54.088;13.446;2022-12-07T06:52:47;1.30;99.90
10143;DHT22;5112;54.088;13.446;2022-12-07T07:02:49;1.20;99.90
10143;DHT22;5112;54.088;13.446;2022-12-07T07:12:52;1.20;99.90
10143;DHT22;5112;54.088;13.446;2022-12-07T07:22:54;1.10;99.90
10143;DHT22;5112;54.088;13.446;2022-12-07T07:32:57;1.10;99.90
10143;DHT22;5112;54.088;13.446;2022-12-07T07:42:59;1.00;99.90
10143;DHT22;5112;54.088;13.446;2022-12-07T07:53:02;1.00;99.90
10143;DHT22;5112;54.088;13.446;2022-12-07T08:03:04;1.10;99.90
10143;DHT22;5112;54.088;13.446;2022-12-07T08:13:07;1.20;99.90
10143;DHT22;5112;54.088;13.446;2022-12-07T08:23:12;1.30;99.90
10143;DHT22;5112;54.088;13.446;2022-12-07T08:33:15;1.20;99.90
10143;DHT22;5112;54.088;13.446;2022-12-07T08:43:16;1.20;99.90
10143;DHT22;5112;54.088;13.446;2022-12-07T08:53:20;1.40;99.90
10143;DHT22;5112;54.088;13.446;2022-12-07T09:03:22;1.30;99.90
10143;DHT22;5112;54.088;13.446;2022-12-07T09:13:25;1.40;99.90
10143;DHT22;5112;54.088;13.446;2022-12-07T09:23:27;1.50;99.90
10143;DHT22;5112;54.088;13.446;2022-12-07T09:33:30;1.60;99.90
10143;DHT22;5112;54.088;13.446;2022-12-07T09:43:35;1.70;99.90
10143;DHT22;5112;54.088;13.446;2022-12-07T09:53:39;1.60;99.90
10143;DHT22;5112;54.088;13.446;2022-12-07T10:03:47;1.70;99.90
10143;DHT22;5112;54.088;13.446;2022-12-07T10:13:52;1.80;99.90
10143;DHT22;5112;54.088;13.446;2022-12-07T10:24:02;2.40;99.90
10143;DHT22;5112;54.088;13.446;2022-12-07T10:34:20;2.70;99.90
10143;DHT22;5112;54.088;13.446;2022-12-07T10:44:23;2.70;99.90
10143;DHT22;5112;54.088;13.446;2022-12-07T10:54:32;2.90;99.90
10143;DHT22;5112;54.088;13.446;2022-12-07T11:04:47;2.80;99.90
10143;DHT22;5112;54.088;13.446;2022-12-07T11:15:01;2.30;99.90
10143;DHT22;5112;54.088;13.446;2022-12-07T11:25:17;2.30;99.90
10143;DHT22;5112;54.088;13.446;2022-12-07T11:35:32;2.40;99.90
10143;DHT22;5112;54.088;13.446;2022-12-07T11:45:35;2.10;99.90
10143;DHT22;5112;54.088;13.446;2022-12-07T11:55:43;2.40;99.90
10143;DHT22;5112;54.088;13.446;2022-12-07T12:05:45;2.80;99.90
10143;DHT22;5112;54.088;13.446;2022-12-07T12:16:02;3.20;99.90
10143;DHT22;5112;54.088;13.446;2022-12-07T12:26:12;3.70;99.90
10143;DHT22;5112;54.088;13.446;2022-12-07T12:36:24;3.40;99.90
10143;DHT22;5112;54.088;13.446;2022-12-07T12:46:45;3.70;99.90
10143;DHT22;5112;54.088;13.446;2022-12-07T12:56:52;4.00;99.90
10143;DHT22;5112;54.088;13.446;2022-12-07T13:06:56;3.80;99.90
10143;DHT22;5112;54.088;13.446;2022-12-07T13:16:59;3.50;99.90
10143;DHT22;5112;54.088;13.446;2022-12-07T13:27:01;3.10;99.90
10143;DHT22;5112;54.088;13.446;2022-12-07T13:37:12;3.10;99.90
10143;DHT22;5112;54.088;13.446;2022-12-07T13:47:18;2.90;99.90
10143;DHT22;5112;54.088;13.446;2022-12-07T13:57:25;2.40;99.90
10143;DHT22;5112;54.088;13.446;2022-12-07T14:07:28;2.10;99.90
10143;DHT22;5112;54.088;13.446;2022-12-07T14:17:31;2.00;99.90
10143;DHT22;5112;54.088;13.446;2022-12-07T14:27:33;1.90;99.90
10143;DHT22;5112;54.088;13.446;2022-12-07T14:37:39;1.90;99.90
10143;DHT22;5112;54.088;13.446;2022-12-07T14:47:41;2.00;99.90
10143;DHT22;5112;54.088;13.446;2022-12-07T14:57:44;2.00;99.90
10143;DHT22;5112;54.088;13.446;2022-12-07T15:07:47;1.90;99.90
10143;DHT22;5112;54.088;13.446;2022-12-07T15:17:50;1.90;99.90
10143;DHT22;5112;54.088;13.446;2022-12-07T15:27:51;1.90;99.90
10143;DHT22;5112;54.088;13.446;2022-12-07T15:37:54;2.00;99.90
10143;DHT22;5112;54.088;13.446;2022-12-07T15:47:56;2.00;99.90
10143;DHT22;5112;54.088;13.446;2022-12-07T15:57:59;1.90;99.90
10143;DHT22;5112;54.088;13.446;2022-12-07T16:08:01;1.80;99.90
10143;DHT22;5112;54.088;13.446;2022-12-07T16:18:04;1.70;99.90
10143;DHT22;5112;54.088;13.446;2022-12-07T16:28:06;1.60;99.90
10143;DHT22;5112;54.088;13.446;2022-12-07T16:38:09;1.60;99.90
10143;DHT22;5112;54.088;13.446;2022-12-07T16:48:11;1.50;99.90
10143;DHT22;5112;54.088;13.446;2022-12-07T16:58:15;1.40;99.90
10143;DHT22;5112;54.088;13.446;2022-12-07T17:08:16;1.20;99.90
10143;DHT22;5112;54.088;13.446;2022-12-07T17:18:19;1.20;99.90
10143;DHT22;5112;54.088;13.446;2022-12-07T17:28:21;1.10;99.90
10143;DHT22;5112;54.088;13.446;2022-12-07T17:38:24;1.00;99.90
10143;DHT22;5112;54.088;13.446;2022-12-07T17:48:26;1.00;99.90
10143;DHT22;5112;54.088;13.446;2022-12-07T17:58:29;1.10;99.90
10143;DHT22;5112;54.088;13.446;2022-12-07T18:08:34;1.20;99.90
10143;DHT22;5112;54.088;13.446;2022-12-07T18:18:37;1.40;99.90
10143;DHT22;5112;54.088;13.446;2022-12-07T18:28:40;1.50;99.90
10143;DHT22;5112;54.088;13.446;2022-12-07T18:38:43;1.50;99.90
10143;DHT22;5112;54.088;13.446;2022-12-07T18:48:45;1.60;99.90
10143;DHT22;5112;54.088;13.446;2022-12-07T18:58:50;1.70;99.90
10143;DHT22;5112;54.088;13.446;2022-12-07T19:09:09;1.60;99.90
10143;DHT22;5112;54.088;13.446;2022-12-07T19:19:13;1.30;99.90
10143;DHT22;5112;54.088;13.446;2022-12-07T19:29:15;1.20;99.90
10143;DHT22;5112;54.088;13.446;2022-12-07T19:39:18;1.10;99.90
10143;DHT22;5112;54.088;13.446;2022-12-07T19:49:21;1.10;99.90
10143;DHT22;5112;54.088;13.446;2022-12-07T19:59:26;1.10;99.90
10143;DHT22;5112;54.088;13.446;2022-12-07T20:09:28;1.10;99.90
10143;DHT22;5112;54.088;13.446;2022-12-07T20:19:33;1.00;99.90
10143;DHT22;5112;54.088;13.446;2022-12-07T20:29:35;0.80;99.90
10143;DHT22;5112;54.088;13.446;2022-12-07T20:39:38;0.80;99.90
10143;DHT22;5112;54.088;13.446;2022-12-07T20:49:40;0.80;99.90
10143;DHT22;5112;54.088;13.446;2022-12-07T20:59:43;0.80;99.90
10143;DHT22;5112;54.088;13.446;2022-12-07T21:09:45;0.70;99.90
10143;DHT22;5112;54.088;13.446;2022-12-07T21:19:48;0.50;99.90
10143;DHT22;5112;54.088;13.446;2022-12-07T21:29:50;0.30;99.90
10143;DHT22;5112;54.088;13.446;2022-12-07T21:39:53;0.20;99.90
10143;DHT22;5112;54.088;13.446;2022-12-07T21:49:55;0.20;99.90
10143;DHT22;5112;54.088;13.446;2022-12-07T21:59:58;0.10;99.90
10143;DHT22;5112;54.088;13.446;2022-12-07T22:09:59;0.10;99.90
10143;DHT22;5112;54.088;13.446;2022-12-07T22:20:03;0.00;99.90
10143;DHT22;5112;54.088;13.446;2022-12-07T22:30:07;-0.20;99.90
10143;DHT22;5112;54.088;13.446;2022-12-07T22:40:12;-0.10;99.90
10143;DHT22;5112;54.088;13.446;2022-12-07T22:50:15;-0.10;99.90
10143;DHT22;5112;54.088;13.446;2022-12-07T23:00:18;-0.10;99.90
10143;DHT22;5112;54.088;13.446;2022-12-07T23:10:20;-0.20;99.90
10143;DHT22;5112;54.088;13.446;2022-12-07T23:20:23;-0.20;99.90
10143;DHT22;5112;54.088;13.446;2022-12-07T23:30:25;-0.30;99.90
10143;DHT22;5112;54.088;13.446;2022-12-07T23:40:28;-0.30;99.90
10143;DHT22;5112;54.088;13.446;2022-12-07T23:50:30;-0.30;99.90
